Time;durP1;ratioP1;P1;durP2;ratioP2;P2;SDS_P1;SDS_P2;PMS_P1;PMS_P2;Temp;Humidity;BMP_temperature;BMP_pressure;BME280_temperature;BME280_humidity;BME280_pressure;Samples;Min_cycle;Max_cycle;Signal;HPM_P1;HPM_P2
2024/03/27 00:01:40;;;;;;;0.40;0.40;;;;;;;;;;5025323;28;20470;-75
2024/03/27 00:04:06;;;;;;;1.65;1.45;;;;;;;;;;5005527;28;20065;-74
2024/03/27 00:06:31;;;;;;;1.17;1.05;;;;;;;;;;5000841;28;20549;-75
2024/03/27 00:08:57;;;;;;;0.50;0.50;;;;;;;;;;4999496;28;20049;-73
2024/03/27 00:11:24;;;;;;;1.02;0.88;;;;;;;;;;5011114;28;20367;-75
2024/03/27 00:13:50;;;;;;;1.67;1.35;;;;;;;;;;5004986;28;20419;-76
2024/03/27 00:16:15;;;;;;;0.30;0.30;;;;;;;;;;5007364;28;20053;-74
2024/03/27 00:18:41;;;;;;;0.63;0.63;;;;;;;;;;5012195;28;20065;-74
2024/03/27 00:21:06;;;;;;;0.30;0.30;;;;;;;;;;5007837;28;20777;-74
2024/03/27 00:23:31;;;;;;;0.30;0.30;;;;;;;;;;4999307;28;20045;-75
2024/03/27 00:25:57;;;;;;;0.32;0.32;;;;;;;;;;5016161;28;20037;-74
2024/03/27 00:28:22;;;;;;;0.30;0.30;;;;;;;;;;5016194;28;20478;-74
2024/03/27 00:30:48;;;;;;;0.40;0.40;;;;;;;;;;5016143;28;20049;-74
2024/03/27 00:33:14;;;;;;;2.78;1.83;;;;;;;;;;5018140;28;20045;-73
2024/03/27 00:35:40;;;;;;;0.52;0.52;;;;;;;;;;5005658;28;20033;-73
2024/03/27 00:38:05;;;;;;;0.50;0.50;;;;;;;;;;5013802;28;20041;-74
2024/03/27 00:40:31;;;;;;;0.52;0.47;;;;;;;;;;5007412;28;20485;-75
2024/03/27 00:42:56;;;;;;;0.30;0.30;;;;;;;;;;5008939;28;20120;-74
2024/03/27 00:45:21;;;;;;;0.40;0.40;;;;;;;;;;5006585;28;20738;-74
2024/03/27 00:47:47;;;;;;;0.20;0.20;;;;;;;;;;5016341;28;20018;-75
2024/03/27 00:50:12;;;;;;;0.40;0.40;;;;;;;;;;5008881;28;20022;-74
2024/03/27 00:52:37;;;;;;;0.30;0.30;;;;;;;;;;5019199;28;20547;-74
2024/03/27 00:55:03;;;;;;;0.57;0.57;;;;;;;;;;5019959;28;20037;-75
2024/03/27 00:57:29;;;;;;;0.68;0.68;;;;;;;;;;5017967;28;20128;-74
2024/03/27 00:59:55;;;;;;;0.30;0.30;;;;;;;;;;5018272;28;20021;-75
2024/03/27 01:02:20;;;;;;;0.20;0.20;;;;;;;;;;4998982;28;20584;-74
2024/03/27 01:04:49;;;;;;;0.57;0.57;;;;;;;;;;5025477;28;20046;-74
2024/03/27 01:07:14;;;;;;;0.30;0.30;;;;;;;;;;5026062;28;20413;-76
2024/03/27 01:09:40;;;;;;;0.30;0.30;;;;;;;;;;5032139;28;20040;-76
2024/03/27 01:12:05;;;;;;;0.30;0.30;;;;;;;;;;5025787;28;20042;-76
2024/03/27 01:14:31;;;;;;;1.83;1.58;;;;;;;;;;5027924;28;20017;-75
2024/03/27 01:16:57;;;;;;;0.30;0.30;;;;;;;;;;5004333;28;20100;-77
2024/03/27 01:19:22;;;;;;;0.25;0.25;;;;;;;;;;5000270;28;20052;-75
2024/03/27 01:21:48;;;;;;;0.50;0.50;;;;;;;;;;5001741;28;20037;-76
2024/03/27 01:24:13;;;;;;;0.50;0.50;;;;;;;;;;5033775;28;20151;-76
2024/03/27 01:26:38;;;;;;;0.30;0.30;;;;;;;;;;5024334;28;20067;-75
2024/03/27 01:29:04;;;;;;;3.80;3.22;;;;;;;;;;5023786;28;20083;-75
2024/03/27 01:31:29;;;;;;;0.30;0.30;;;;;;;;;;5026092;28;20037;-75
2024/03/27 01:33:54;;;;;;;0.73;0.73;;;;;;;;;;5026058;28;20034;-75
2024/03/27 01:36:20;;;;;;;0.70;0.70;;;;;;;;;;5017808;28;20064;-74
2024/03/27 01:38:45;;;;;;;1.45;1.38;;;;;;;;;;5004897;28;20036;-74
2024/03/27 01:41:11;;;;;;;0.40;0.40;;;;;;;;;;5000744;28;20097;-75
2024/03/27 01:43:37;;;;;;;0.40;0.40;;;;;;;;;;5007323;28;20473;-74
2024/03/27 01:46:05;;;;;;;0.80;0.73;;;;;;;;;;5003796;28;20481;-74
2024/03/27 01:48:30;;;;;;;1.55;1.25;;;;;;;;;;5005757;28;20069;-74
2024/03/27 01:50:56;;;;;;;0.20;0.20;;;;;;;;;;5000153;28;20494;-75
2024/03/27 01:53:21;;;;;;;0.25;0.25;;;;;;;;;;5006551;28;20022;-74
2024/03/27 01:55:47;;;;;;;2.88;2.78;;;;;;;;;;5004946;28;20896;-74
2024/03/27 01:58:13;;;;;;;0.52;0.52;;;;;;;;;;5018395;28;20097;-75
2024/03/27 02:00:38;;;;;;;0.20;0.20;;;;;;;;;;5024106;28;20417;-74
2024/03/27 02:03:04;;;;;;;0.35;0.35;;;;;;;;;;5023871;28;20243;-75
2024/03/27 02:05:29;;;;;;;0.30;0.30;;;;;;;;;;5025209;28;20033;-75
2024/03/27 02:07:55;;;;;;;0.73;0.73;;;;;;;;;;5024726;28;20064;-75
2024/03/27 02:10:20;;;;;;;0.32;0.32;;;;;;;;;;5023045;28;20121;-74
2024/03/27 02:12:45;;;;;;;0.38;0.38;;;;;;;;;;5023003;28;20120;-75
2024/03/27 02:15:12;;;;;;;0.32;0.32;;;;;;;;;;5023848;28;20484;-74
2024/03/27 02:17:38;;;;;;;0.55;0.55;;;;;;;;;;5025285;28;21496;-74
2024/03/27 02:20:06;;;;;;;0.45;0.45;;;;;;;;;;5024758;28;20470;-74
2024/03/27 02:22:33;;;;;;;0.65;0.65;;;;;;;;;;5023896;28;20088;-74
2024/03/27 02:25:01;;;;;;;0.30;0.30;;;;;;;;;;5024323;28;20045;-75
2024/03/27 02:27:27;;;;;;;0.40;0.30;;;;;;;;;;5020575;28;20091;-75
2024/03/27 02:29:52;;;;;;;1.13;1.05;;;;;;;;;;5017758;28;20037;-76
2024/03/27 02:32:17;;;;;;;3.35;3.25;;;;;;;;;;5037963;28;20056;-74
2024/03/27 02:34:43;;;;;;;0.40;0.40;;;;;;;;;;5022127;28;20432;-74
2024/03/27 02:37:08;;;;;;;0.55;0.43;;;;;;;;;;5021449;28;20155;-74
2024/03/27 02:39:34;;;;;;;0.30;0.30;;;;;;;;;;5024371;28;20065;-75
2024/03/27 02:41:59;;;;;;;1.30;1.20;;;;;;;;;;5024245;28;20033;-75
2024/03/27 02:44:24;;;;;;;0.30;0.30;;;;;;;;;;5024211;28;20147;-74
2024/03/27 02:46:50;;;;;;;0.40;0.40;;;;;;;;;;5023663;28;20044;-75
2024/03/27 02:49:15;;;;;;;0.30;0.30;;;;;;;;;;5025241;28;20192;-74
2024/03/27 02:51:41;;;;;;;6.55;6.18;;;;;;;;;;5022917;28;20041;-74
2024/03/27 02:54:06;;;;;;;1.25;1.23;;;;;;;;;;5025406;28;20040;-74
2024/03/27 02:56:31;;;;;;;0.40;0.40;;;;;;;;;;5022883;28;20026;-74
2024/03/27 02:58:57;;;;;;;0.50;0.50;;;;;;;;;;5023919;28;20047;-74
2024/03/27 03:01:22;;;;;;;0.30;0.30;;;;;;;;;;5025318;28;20049;-74
2024/03/27 03:03:47;;;;;;;1.40;1.40;;;;;;;;;;5024254;28;20136;-75
2024/03/27 03:06:13;;;;;;;2.78;2.58;;;;;;;;;;5012202;28;20497;-76
2024/03/27 03:08:38;;;;;;;0.50;0.50;;;;;;;;;;5025366;28;20132;-74
2024/03/27 03:11:03;;;;;;;0.30;0.30;;;;;;;;;;5022973;28;20060;-74
2024/03/27 03:13:29;;;;;;;0.30;0.30;;;;;;;;;;5024496;28;20091;-74
2024/03/27 03:15:54;;;;;;;0.20;0.20;;;;;;;;;;5024323;28;20500;-74
2024/03/27 03:18:20;;;;;;;0.90;0.90;;;;;;;;;;5023872;28;20045;-74
2024/03/27 03:20:45;;;;;;;0.30;0.30;;;;;;;;;;5027705;28;20069;-74
2024/03/27 03:23:11;;;;;;;0.20;0.20;;;;;;;;;;5023827;28;20025;-74
2024/03/27 03:25:36;;;;;;;1.27;1.17;;;;;;;;;;5024255;28;20049;-73
2024/03/27 03:28:01;;;;;;;0.30;0.30;;;;;;;;;;5024271;28;20133;-74
2024/03/27 03:30:27;;;;;;;0.30;0.30;;;;;;;;;;5023498;28;20343;-75
2024/03/27 03:32:53;;;;;;;0.30;0.30;;;;;;;;;;5024174;28;20137;-75
2024/03/27 03:35:18;;;;;;;1.70;1.65;;;;;;;;;;5024325;28;20017;-73
2024/03/27 03:37:44;;;;;;;0.30;0.30;;;;;;;;;;5022059;28;20397;-74
2024/03/27 03:40:09;;;;;;;4.82;4.53;;;;;;;;;;5024664;28;20034;-75
2024/03/27 03:42:35;;;;;;;0.32;0.32;;;;;;;;;;5024602;28;20547;-75
2024/03/27 03:45:01;;;;;;;0.50;0.50;;;;;;;;;;5025296;28;20552;-72
2024/03/27 03:47:26;;;;;;;0.32;0.32;;;;;;;;;;5022904;28;20472;-75
2024/03/27 03:49:52;;;;;;;0.30;0.30;;;;;;;;;;5024675;28;20100;-73
2024/03/27 03:52:17;;;;;;;0.45;0.45;;;;;;;;;;5021513;28;20049;-73
2024/03/27 03:54:42;;;;;;;2.90;2.70;;;;;;;;;;5025203;28;20033;-74
2024/03/27 03:57:08;;;;;;;0.50;0.50;;;;;;;;;;5028109;28;20532;-74
2024/03/27 03:59:33;;;;;;;0.40;0.40;;;;;;;;;;5029658;28;21230;-74
2024/03/27 04:02:00;;;;;;;1.42;0.80;;;;;;;;;;5025730;28;20115;-74
2024/03/27 04:04:25;;;;;;;0.30;0.30;;;;;;;;;;5034695;28;20053;-74
2024/03/27 04:06:51;;;;;;;0.25;0.25;;;;;;;;;;5026659;28;20033;-75
2024/03/27 04:09:17;;;;;;;0.30;0.30;;;;;;;;;;5026102;28;20382;-74
2024/03/27 04:11:42;;;;;;;0.63;0.40;;;;;;;;;;5028512;28;20757;-74
2024/03/27 04:14:08;;;;;;;3.03;2.92;;;;;;;;;;5029206;28;20076;-74
2024/03/27 04:16:33;;;;;;;0.40;0.40;;;;;;;;;;5026713;28;20064;-74
2024/03/27 04:18:58;;;;;;;0.20;0.20;;;;;;;;;;5030101;28;20146;-74
2024/03/27 04:21:24;;;;;;;0.40;0.40;;;;;;;;;;5020698;28;20163;-75
2024/03/27 04:23:49;;;;;;;10.63;2.47;;;;;;;;;;5025261;28;20028;-73
2024/03/27 04:26:18;;;;;;;0.30;0.30;;;;;;;;;;5028542;28;20159;-73
2024/03/27 04:28:43;;;;;;;0.73;0.68;;;;;;;;;;5028181;28;20041;-74
2024/03/27 04:31:09;;;;;;;0.50;0.50;;;;;;;;;;5013702;28;20049;-73
2024/03/27 04:33:34;;;;;;;1.23;1.23;;;;;;;;;;5006462;28;20038;-74
2024/03/27 04:36:00;;;;;;;0.40;0.40;;;;;;;;;;5007662;28;20054;-75
2024/03/27 04:38:25;;;;;;;0.30;0.30;;;;;;;;;;5007923;28;20386;-75
2024/03/27 04:40:51;;;;;;;1.42;1.33;;;;;;;;;;5005755;28;20458;-75
2024/03/27 04:43:16;;;;;;;0.30;0.30;;;;;;;;;;5006151;28;20038;-76
2024/03/27 04:45:41;;;;;;;0.30;0.30;;;;;;;;;;5006078;28;20066;-74
2024/03/27 04:48:07;;;;;;;1.55;1.23;;;;;;;;;;5006672;28;20133;-74
2024/03/27 04:50:33;;;;;;;0.30;0.30;;;;;;;;;;5009467;28;20425;-74
2024/03/27 04:52:58;;;;;;;0.50;0.50;;;;;;;;;;5010151;28;20510;-74
2024/03/27 04:55:24;;;;;;;0.82;0.82;;;;;;;;;;5002931;28;20466;-75
2024/03/27 04:57:49;;;;;;;1.25;1.25;;;;;;;;;;5027867;28;20041;-75
2024/03/27 05:00:15;;;;;;;8.15;3.83;;;;;;;;;;5024294;28;20111;-75
2024/03/27 05:02:40;;;;;;;1.45;1.10;;;;;;;;;;5022242;28;20061;-75
2024/03/27 05:05:06;;;;;;;0.65;0.65;;;;;;;;;;5024006;28;20033;-74
2024/03/27 05:07:31;;;;;;;2.70;2.60;;;;;;;;;;5008921;28;20033;-74
2024/03/27 05:09:57;;;;;;;0.40;0.40;;;;;;;;;;5028202;28;20037;-74
2024/03/27 05:12:22;;;;;;;1.50;1.48;;;;;;;;;;5027774;28;20048;-74
2024/03/27 05:14:47;;;;;;;0.30;0.30;;;;;;;;;;5026457;28;20428;-74
2024/03/27 05:17:13;;;;;;;0.30;0.30;;;;;;;;;;5011972;28;20041;-74
2024/03/27 05:19:39;;;;;;;0.30;0.30;;;;;;;;;;5023048;28;20103;-74
2024/03/27 05:22:04;;;;;;;0.38;0.38;;;;;;;;;;5026021;28;20090;-75
2024/03/27 05:24:30;;;;;;;0.32;0.32;;;;;;;;;;5024774;28;20395;-74
2024/03/27 05:26:55;;;;;;;0.50;0.50;;;;;;;;;;5024579;28;20040;-74
2024/03/27 05:29:20;;;;;;;0.30;0.30;;;;;;;;;;5022139;28;20044;-74
2024/03/27 05:31:50;;;;;;;0.40;0.40;;;;;;;;;;5023870;28;20033;-75
2024/03/27 05:34:16;;;;;;;0.30;0.30;;;;;;;;;;5024832;28;21765;-75
2024/03/27 05:36:41;;;;;;;0.30;0.30;;;;;;;;;;5024853;28;20409;-74
2024/03/27 05:39:08;;;;;;;0.40;0.40;;;;;;;;;;5024435;28;20192;-76
2024/03/27 05:41:34;;;;;;;2.55;2.45;;;;;;;;;;5020105;28;20030;-75
2024/03/27 05:44:00;;;;;;;0.40;0.40;;;;;;;;;;5020933;28;20147;-74
2024/03/27 05:46:25;;;;;;;5.43;5.07;;;;;;;;;;5026711;28;20037;-74
2024/03/27 05:48:51;;;;;;;1.05;1.05;;;;;;;;;;5014003;28;20042;-75
2024/03/27 05:51:17;;;;;;;0.30;0.30;;;;;;;;;;5009963;28;20441;-75
2024/03/27 05:53:42;;;;;;;0.77;0.77;;;;;;;;;;5024408;28;20083;-75
2024/03/27 05:56:08;;;;;;;0.90;0.65;;;;;;;;;;5025006;28;20136;-75
2024/03/27 05:58:33;;;;;;;0.77;0.77;;;;;;;;;;5025019;28;20572;-75
2024/03/27 06:00:59;;;;;;;0.98;0.82;;;;;;;;;;5017947;28;20439;-75
2024/03/27 06:03:24;;;;;;;0.35;0.35;;;;;;;;;;5026248;28;20057;-73
2024/03/27 06:05:50;;;;;;;0.47;0.47;;;;;;;;;;5025036;28;20036;-74
2024/03/27 06:08:15;;;;;;;0.30;0.30;;;;;;;;;;5025805;28;20077;-74
2024/03/27 06:10:42;;;;;;;0.30;0.30;;;;;;;;;;5021351;28;20049;-74
2024/03/27 06:13:07;;;;;;;0.30;0.30;;;;;;;;;;5009631;28;20133;-79
2024/03/27 06:15:33;;;;;;;0.25;0.25;;;;;;;;;;5015988;28;20116;-78
2024/03/27 06:18:00;;;;;;;0.73;0.73;;;;;;;;;;5027098;28;20409;-79
2024/03/27 06:20:25;;;;;;;0.20;0.20;;;;;;;;;;5038888;28;20056;-85
2024/03/27 06:22:50;;;;;;;1.70;1.63;;;;;;;;;;5006942;28;20065;-76
2024/03/27 06:25:16;;;;;;;2.72;2.53;;;;;;;;;;5022108;28;20474;-74
2024/03/27 06:27:42;;;;;;;0.60;0.60;;;;;;;;;;5018870;28;20175;-74
2024/03/27 06:30:08;;;;;;;0.40;0.40;;;;;;;;;;5022361;28;20042;-75
2024/03/27 06:32:33;;;;;;;0.95;0.95;;;;;;;;;;5024549;28;20031;-76
2024/03/27 06:35:00;;;;;;;1.67;1.58;;;;;;;;;;5025971;28;20037;-75
2024/03/27 06:37:25;;;;;;;0.43;0.43;;;;;;;;;;5021895;28;20041;-75
2024/03/27 06:39:51;;;;;;;0.82;0.82;;;;;;;;;;5020950;28;20057;-74
2024/03/27 06:42:16;;;;;;;0.30;0.30;;;;;;;;;;5024770;28;20037;-76
2024/03/27 06:44:42;;;;;;;0.95;0.95;;;;;;;;;;5011102;28;20026;-75
2024/03/27 06:47:08;;;;;;;0.50;0.50;;;;;;;;;;4993687;28;20042;-74
2024/03/27 06:49:33;;;;;;;0.60;0.60;;;;;;;;;;5019743;28;20481;-73
2024/03/27 06:52:02;;;;;;;0.30;0.30;;;;;;;;;;5024405;28;20512;-75
2024/03/27 06:54:27;;;;;;;0.30;0.30;;;;;;;;;;5007889;28;20213;-74
2024/03/27 06:56:52;;;;;;;4.25;4.00;;;;;;;;;;5018146;28;20136;-74
2024/03/27 06:59:18;;;;;;;0.30;0.30;;;;;;;;;;5019185;28;20041;-76
2024/03/27 07:01:43;;;;;;;0.50;0.50;;;;;;;;;;4998047;28;20549;-78
2024/03/27 07:04:09;;;;;;;0.30;0.30;;;;;;;;;;5010332;28;20048;-76
2024/03/27 07:06:34;;;;;;;0.63;0.63;;;;;;;;;;5023772;28;20041;-77
2024/03/27 07:09:00;;;;;;;0.55;0.55;;;;;;;;;;5033820;28;20041;-77
2024/03/27 07:11:27;;;;;;;0.30;0.30;;;;;;;;;;5011694;28;20029;-80
2024/03/27 07:13:52;;;;;;;0.30;0.30;;;;;;;;;;5008422;28;20052;-79
2024/03/27 07:16:17;;;;;;;1.95;1.85;;;;;;;;;;5025626;28;20057;-76
2024/03/27 07:18:44;;;;;;;0.55;0.55;;;;;;;;;;5024291;28;20580;-78
2024/03/27 07:21:09;;;;;;;0.57;0.57;;;;;;;;;;5024135;28;20037;-78
2024/03/27 07:23:35;;;;;;;0.43;0.43;;;;;;;;;;5023365;28;20071;-77
2024/03/27 07:26:06;;;;;;;0.40;0.40;;;;;;;;;;5020233;28;20048;-78
2024/03/27 07:28:32;;;;;;;1.15;1.05;;;;;;;;;;5018919;28;20041;-78
2024/03/27 07:31:00;;;;;;;0.82;0.82;;;;;;;;;;5017018;28;20446;-76
2024/03/27 07:33:25;;;;;;;1.13;1.13;;;;;;;;;;5015800;28;20076;-77
2024/03/27 07:35:51;;;;;;;0.93;0.93;;;;;;;;;;5024796;28;20463;-77
2024/03/27 07:38:16;;;;;;;0.63;0.63;;;;;;;;;;5000572;28;20045;-76
2024/03/27 07:40:42;;;;;;;4.82;0.60;;;;;;;;;;5004699;28;20077;-76
2024/03/27 07:43:07;;;;;;;0.20;0.20;;;;;;;;;;5020465;28;20033;-76
2024/03/27 07:45:34;;;;;;;2.05;0.57;;;;;;;;;;5026125;28;20065;-78
2024/03/27 07:47:59;;;;;;;0.20;0.20;;;;;;;;;;5024525;28;20063;-77
2024/03/27 07:50:24;;;;;;;0.30;0.30;;;;;;;;;;5008395;28;20033;-79
2024/03/27 07:52:50;;;;;;;0.30;0.30;;;;;;;;;;5022348;28;20064;-78
2024/03/27 07:55:16;;;;;;;1.10;1.02;;;;;;;;;;5006853;28;20044;-78
2024/03/27 07:57:42;;;;;;;0.40;0.40;;;;;;;;;;5027944;28;20052;-77
2024/03/27 08:00:11;;;;;;;1.17;1.08;;;;;;;;;;5008128;28;20045;-78
2024/03/27 08:02:37;;;;;;;0.57;0.57;;;;;;;;;;5020160;28;20500;-77
2024/03/27 08:05:03;;;;;;;0.57;0.57;;;;;;;;;;5023503;28;20029;-79
2024/03/27 08:07:28;;;;;;;0.20;0.20;;;;;;;;;;5023402;28;20038;-76
2024/03/27 08:09:53;;;;;;;0.30;0.30;;;;;;;;;;5021996;28;20041;-78
2024/03/27 08:12:19;;;;;;;3.50;3.20;;;;;;;;;;5005751;28;20401;-80
2024/03/27 08:14:45;;;;;;;3.53;3.22;;;;;;;;;;5025811;28;20026;-78
2024/03/27 08:17:10;;;;;;;0.75;0.75;;;;;;;;;;5022620;28;20156;-83
2024/03/27 08:19:40;;;;;;;0.40;0.38;;;;;;;;;;5019177;28;20053;-83
2024/03/27 08:22:05;;;;;;;0.30;0.30;;;;;;;;;;5030156;28;20132;-79
2024/03/27 08:24:31;;;;;;;0.43;0.43;;;;;;;;;;5030345;28;20148;-81
2024/03/27 08:26:56;;;;;;;0.88;0.88;;;;;;;;;;5029097;28;20045;-83
2024/03/27 08:29:21;;;;;;;3.40;3.20;;;;;;;;;;5027361;28;20028;-83
2024/03/27 08:31:47;;;;;;;1.85;1.70;;;;;;;;;;5027994;28;20205;-84
2024/03/27 08:34:12;;;;;;;0.50;0.50;;;;;;;;;;5027733;28;20421;-82
2024/03/27 08:36:37;;;;;;;1.85;1.10;;;;;;;;;;5027696;28;20049;-81
2024/03/27 08:39:06;;;;;;;0.50;0.50;;;;;;;;;;5025312;28;20041;-83
2024/03/27 08:41:31;;;;;;;0.30;0.30;;;;;;;;;;5019683;28;20013;-83
2024/03/27 08:43:58;;;;;;;3.95;2.90;;;;;;;;;;5028320;28;20124;-82
2024/03/27 08:46:23;;;;;;;3.55;2.90;;;;;;;;;;5026458;28;20140;-85
2024/03/27 08:48:49;;;;;;;0.70;0.70;;;;;;;;;;5028176;28;20041;-83
2024/03/27 08:51:15;;;;;;;0.20;0.20;;;;;;;;;;5033575;28;20134;-80
2024/03/27 08:53:40;;;;;;;0.43;0.43;;;;;;;;;;5026090;28;20029;-83
2024/03/27 08:56:06;;;;;;;0.20;0.20;;;;;;;;;;5027206;28;20405;-84
2024/03/27 08:58:31;;;;;;;0.85;0.65;;;;;;;;;;5027470;28;20160;-82
2024/03/27 09:00:57;;;;;;;1.27;1.00;;;;;;;;;;5027666;28;20540;-82
2024/03/27 09:03:22;;;;;;;1.35;1.25;;;;;;;;;;5025290;28;20157;-84
2024/03/27 09:05:48;;;;;;;3.25;2.10;;;;;;;;;;5026454;28;20449;-82
2024/03/27 09:08:13;;;;;;;2.60;1.90;;;;;;;;;;5008688;28;20033;-82
2024/03/27 09:10:38;;;;;;;2.28;2.05;;;;;;;;;;5024575;28;20298;-84
2024/03/27 09:13:05;;;;;;;2.08;1.25;;;;;;;;;;5028303;28;20045;-84
2024/03/27 09:15:30;;;;;;;2.03;1.67;;;;;;;;;;5026909;28;20549;-84
2024/03/27 09:17:55;;;;;;;2.15;1.95;;;;;;;;;;5031563;28;20104;-83
2024/03/27 09:20:21;;;;;;;1.40;1.30;;;;;;;;;;5025492;28;20013;-83
2024/03/27 09:22:47;;;;;;;1.35;1.20;;;;;;;;;;5011451;28;20557;-83
2024/03/27 09:25:13;;;;;;;1.95;1.75;;;;;;;;;;5026794;28;20044;-82
2024/03/27 09:27:39;;;;;;;2.22;1.98;;;;;;;;;;5027839;28;20041;-83
2024/03/27 09:30:05;;;;;;;2.50;1.95;;;;;;;;;;5007063;28;20046;-83
2024/03/27 09:32:30;;;;;;;1.60;1.50;;;;;;;;;;5027742;28;20033;-81
2024/03/27 09:34:55;;;;;;;1.35;0.80;;;;;;;;;;5025729;28;20034;-82
2024/03/27 09:37:21;;;;;;;3.13;1.13;;;;;;;;;;5023966;28;20096;-83
2024/03/27 09:39:47;;;;;;;1.73;1.60;;;;;;;;;;5025264;28;20557;-83
2024/03/27 09:42:12;;;;;;;2.03;1.73;;;;;;;;;;5026493;28;20052;-83
2024/03/27 09:44:38;;;;;;;1.27;1.17;;;;;;;;;;5022692;28;20476;-85
2024/03/27 09:47:05;;;;;;;1.27;1.05;;;;;;;;;;5020239;28;20048;-86
2024/03/27 09:49:30;;;;;;;16.70;1.95;;;;;;;;;;5025107;28;20077;-85
2024/03/27 09:51:59;;;;;;;1.50;1.40;;;;;;;;;;5015062;28;20072;-79
2024/03/27 09:54:25;;;;;;;1.15;1.08;;;;;;;;;;5050863;28;20063;-83
2024/03/27 09:56:51;;;;;;;4.13;3.72;;;;;;;;;;5027644;28;20038;-81
2024/03/27 09:59:17;;;;;;;1.25;1.15;;;;;;;;;;5024104;28;20064;-82
2024/03/27 10:01:42;;;;;;;2.85;1.67;;;;;;;;;;5020898;28;20069;-81
2024/03/27 10:04:08;;;;;;;1.50;1.40;;;;;;;;;;5014622;28;20076;-83
2024/03/27 10:06:34;;;;;;;4.88;1.65;;;;;;;;;;5020502;28;20054;-84
2024/03/27 10:09:02;;;;;;;3.25;1.27;;;;;;;;;;5022032;28;20050;-80
2024/03/27 10:11:28;;;;;;;1.13;0.90;;;;;;;;;;5022284;28;20429;-79
2024/03/27 10:13:53;;;;;;;1.83;1.67;;;;;;;;;;5019685;28;20049;-83
2024/03/27 10:16:18;;;;;;;1.48;1.23;;;;;;;;;;5025168;28;20057;-84
2024/03/27 10:18:44;;;;;;;1.13;1.08;;;;;;;;;;5026754;28;20489;-81
2024/03/27 10:21:09;;;;;;;1.05;0.93;;;;;;;;;;5015411;28;20062;-80
2024/03/27 10:23:35;;;;;;;1.92;1.75;;;;;;;;;;5020548;28;20025;-81
2024/03/27 10:26:04;;;;;;;3.35;2.17;;;;;;;;;;5021921;28;20049;-79
2024/03/27 10:28:34;;;;;;;0.45;0.45;;;;;;;;;;5023977;28;20389;-81
2024/03/27 10:31:01;;;;;;;1.65;1.02;;;;;;;;;;5019230;28;20033;-82
2024/03/27 10:33:27;;;;;;;0.70;0.68;;;;;;;;;;5018758;28;20090;-85
2024/03/27 10:35:53;;;;;;;1.58;1.20;;;;;;;;;;5026310;28;20029;-87
2024/03/27 10:38:19;;;;;;;0.60;0.52;;;;;;;;;;5030556;28;20044;-87
2024/03/27 10:40:45;;;;;;;0.40;0.38;;;;;;;;;;5021640;28;20038;-86
2024/03/27 10:43:37;;;;;;;2.20;2.00;;;;;;;;;;5006678;28;20051;-84
2024/03/27 10:46:02;;;;;;;1.33;0.73;;;;;;;;;;5017453;28;20083;-86
2024/03/27 10:48:28;;;;;;;1.05;0.90;;;;;;;;;;5020120;28;20149;-86
2024/03/27 10:50:54;;;;;;;1.67;1.30;;;;;;;;;;5016114;28;20397;-82
2024/03/27 10:53:20;;;;;;;0.50;0.50;;;;;;;;;;5022531;28;20025;-81
2024/03/27 10:55:46;;;;;;;0.35;0.30;;;;;;;;;;5020891;28;20347;-85
2024/03/27 10:58:12;;;;;;;0.30;0.30;;;;;;;;;;5025219;28;20068;-83
2024/03/27 11:00:39;;;;;;;5.30;1.55;;;;;;;;;;5010754;28;20474;-81
2024/03/27 11:03:05;;;;;;;0.57;0.55;;;;;;;;;;5019257;28;20510;-81
2024/03/27 11:05:31;;;;;;;2.58;1.85;;;;;;;;;;5020051;28;20053;-81
2024/03/27 11:07:58;;;;;;;1.45;1.35;;;;;;;;;;5004128;28;20072;-82
2024/03/27 11:10:24;;;;;;;1.13;1.05;;;;;;;;;;5024971;28;20547;-81
2024/03/27 11:12:50;;;;;;;0.93;0.80;;;;;;;;;;5033154;28;20136;-83
2024/03/27 11:15:15;;;;;;;1.48;0.85;;;;;;;;;;5030302;28;20124;-81
2024/03/27 11:17:48;;;;;;;1.67;1.38;;;;;;;;;;5007663;28;20060;-82
2024/03/27 11:20:14;;;;;;;1.58;1.40;;;;;;;;;;5016858;28;20030;-82
2024/03/27 11:22:42;;;;;;;0.75;0.75;;;;;;;;;;4999065;28;20037;-84
2024/03/27 11:25:11;;;;;;;0.52;0.43;;;;;;;;;;5023812;28;20417;-83
2024/03/27 11:27:37;;;;;;;0.77;0.75;;;;;;;;;;5027087;28;20128;-81
2024/03/27 11:30:03;;;;;;;2.08;1.80;;;;;;;;;;5028059;28;20119;-80
2024/03/27 11:32:34;;;;;;;0.40;0.32;;;;;;;;;;5020997;28;20426;-82
2024/03/27 11:35:03;;;;;;;0.38;0.22;;;;;;;;;;5022539;28;20046;-82
2024/03/27 11:37:28;;;;;;;0.30;0.30;;;;;;;;;;5007114;28;20046;-81
2024/03/27 11:39:54;;;;;;;1.95;1.65;;;;;;;;;;5029971;28;20056;-84
2024/03/27 11:42:19;;;;;;;1.15;1.05;;;;;;;;;;5025076;28;20040;-81
2024/03/27 11:44:45;;;;;;;1.25;1.15;;;;;;;;;;5026393;28;20021;-81
2024/03/27 11:47:11;;;;;;;0.65;0.45;;;;;;;;;;5021349;28;20115;-82
2024/03/27 11:49:36;;;;;;;1.27;1.13;;;;;;;;;;5023214;28;20057;-84
2024/03/27 11:52:02;;;;;;;0.20;0.20;;;;;;;;;;5017824;28;20034;-82
2024/03/27 11:54:27;;;;;;;1.58;1.30;;;;;;;;;;4989202;28;20054;-80
2024/03/27 11:56:54;;;;;;;0.55;0.50;;;;;;;;;;5022528;28;20928;-77
2024/03/27 11:59:19;;;;;;;0.75;0.73;;;;;;;;;;5024797;28;20025;-83
2024/03/27 12:01:44;;;;;;;0.32;0.32;;;;;;;;;;5022098;28;20489;-81
2024/03/27 12:04:10;;;;;;;0.75;0.57;;;;;;;;;;5019309;28;20056;-82
2024/03/27 12:06:36;;;;;;;1.48;0.95;;;;;;;;;;5040965;28;20056;-84
2024/03/27 12:09:03;;;;;;;0.68;0.68;;;;;;;;;;5039809;28;20029;-80
2024/03/27 12:11:29;;;;;;;0.38;0.38;;;;;;;;;;5041114;28;20029;-79
2024/03/27 12:13:55;;;;;;;0.52;0.52;;;;;;;;;;5032466;28;20076;-76
2024/03/27 12:16:21;;;;;;;0.77;0.30;;;;;;;;;;5038355;28;20065;-77
2024/03/27 12:18:46;;;;;;;0.93;0.50;;;;;;;;;;5032709;28;20061;-76
2024/03/27 12:21:12;;;;;;;1.23;1.13;;;;;;;;;;5030009;28;20141;-75
2024/03/27 12:23:38;;;;;;;0.68;0.63;;;;;;;;;;5032896;28;20037;-75
2024/03/27 12:26:05;;;;;;;0.50;0.45;;;;;;;;;;5037370;28;20029;-75
2024/03/27 12:28:30;;;;;;;0.40;0.40;;;;;;;;;;5034873;28;20124;-74
2024/03/27 12:30:56;;;;;;;1.63;0.95;;;;;;;;;;5035164;28;20061;-76
2024/03/27 12:33:22;;;;;;;0.85;0.65;;;;;;;;;;5033603;28;20045;-76
2024/03/27 12:35:47;;;;;;;0.30;0.30;;;;;;;;;;5038870;28;20025;-75
2024/03/27 12:38:16;;;;;;;0.75;0.73;;;;;;;;;;5031461;28;20045;-76
2024/03/27 12:40:43;;;;;;;0.20;0.20;;;;;;;;;;5025890;28;20080;-77
2024/03/27 12:43:09;;;;;;;0.30;0.30;;;;;;;;;;5012393;28;20041;-75
2024/03/27 12:45:34;;;;;;;0.85;0.85;;;;;;;;;;5025980;28;20033;-77
2024/03/27 12:48:00;;;;;;;1.30;1.00;;;;;;;;;;5026071;28;20044;-76
2024/03/27 12:50:25;;;;;;;0.25;0.25;;;;;;;;;;5024394;28;20473;-77
2024/03/27 12:52:50;;;;;;;0.57;0.50;;;;;;;;;;5022938;28;20045;-75
2024/03/27 12:55:17;;;;;;;1.55;1.45;;;;;;;;;;5008530;28;20507;-78
2024/03/27 12:57:43;;;;;;;0.40;0.40;;;;;;;;;;5028971;28;20049;-75
2024/03/27 13:00:09;;;;;;;0.20;0.20;;;;;;;;;;5008472;28;20041;-76
2024/03/27 13:02:35;;;;;;;0.28;0.28;;;;;;;;;;5022058;28;20048;-76
2024/03/27 13:05:00;;;;;;;1.67;1.38;;;;;;;;;;5003415;28;20046;-73
2024/03/27 13:07:27;;;;;;;0.38;0.35;;;;;;;;;;5024550;28;20044;-77
2024/03/27 13:09:53;;;;;;;0.65;0.47;;;;;;;;;;5023402;28;20061;-76
2024/03/27 13:12:18;;;;;;;0.38;0.38;;;;;;;;;;5002103;28;20055;-76
2024/03/27 13:14:43;;;;;;;0.35;0.32;;;;;;;;;;5020285;28;20543;-75
2024/03/27 13:17:09;;;;;;;0.43;0.43;;;;;;;;;;5026394;28;20068;-76
2024/03/27 13:19:36;;;;;;;0.43;0.43;;;;;;;;;;5024427;28;20071;-76
2024/03/27 13:22:02;;;;;;;0.47;0.38;;;;;;;;;;5025151;28;20172;-76
2024/03/27 13:24:27;;;;;;;0.55;0.55;;;;;;;;;;5026479;28;20429;-77
2024/03/27 13:26:54;;;;;;;3.03;1.20;;;;;;;;;;5025684;28;20026;-75
2024/03/27 13:29:19;;;;;;;0.68;0.45;;;;;;;;;;5029095;28;20103;-77
2024/03/27 13:31:45;;;;;;;5.82;2.67;;;;;;;;;;5029596;28;20397;-78
2024/03/27 13:34:10;;;;;;;2.42;1.30;;;;;;;;;;5026318;28;20064;-76
2024/03/27 13:36:36;;;;;;;0.85;0.85;;;;;;;;;;5008539;28;20132;-77
2024/03/27 13:39:01;;;;;;;0.70;0.70;;;;;;;;;;5025696;28;20107;-76
2024/03/27 13:41:26;;;;;;;1.35;0.98;;;;;;;;;;5007894;28;20129;-76
2024/03/27 13:43:52;;;;;;;1.88;1.15;;;;;;;;;;5023361;28;20052;-76
2024/03/27 13:46:18;;;;;;;1.08;0.57;;;;;;;;;;5025114;28;20041;-77
2024/03/27 13:48:45;;;;;;;0.60;0.57;;;;;;;;;;5020299;28;20038;-77
2024/03/27 13:51:10;;;;;;;1.55;1.27;;;;;;;;;;5025244;28;20052;-76
2024/03/27 13:53:37;;;;;;;2.92;2.63;;;;;;;;;;5015954;28;20029;-76
2024/03/27 13:56:03;;;;;;;0.35;0.35;;;;;;;;;;4993163;28;20099;-76
2024/03/27 13:58:31;;;;;;;0.28;0.28;;;;;;;;;;5023173;28;20532;-78
2024/03/27 14:00:56;;;;;;;1.23;1.13;;;;;;;;;;5025543;28;20032;-76
2024/03/27 14:03:23;;;;;;;0.25;0.25;;;;;;;;;;5029294;28;20536;-75
2024/03/27 14:06:07;;;;;;;0.93;0.70;;;;;;;;;;5022834;28;20104;-75
2024/03/27 14:08:33;;;;;;;3.30;1.98;;;;;;;;;;5040685;28;20047;-76
2024/03/27 14:10:58;;;;;;;0.63;0.30;;;;;;;;;;5021752;28;20086;-77
2024/03/27 14:13:24;;;;;;;0.90;0.70;;;;;;;;;;5030478;28;20409;-76
2024/03/27 14:15:49;;;;;;;0.63;0.63;;;;;;;;;;5025291;28;20033;-77
2024/03/27 14:18:14;;;;;;;0.20;0.20;;;;;;;;;;5023010;28;20025;-76
2024/03/27 14:20:45;;;;;;;2.50;1.05;;;;;;;;;;5013305;28;20192;-75
2024/03/27 14:23:12;;;;;;;0.60;0.57;;;;;;;;;;5049137;28;20042;-75
2024/03/27 14:28:34;;;;;;;0.30;0.30;;;;;;;;;;5001381;28;20386;-78
2024/03/27 14:31:00;;;;;;;0.40;0.40;;;;;;;;;;5004522;28;20474;-74
2024/03/27 14:33:25;;;;;;;1.00;0.88;;;;;;;;;;5005439;28;20041;-77
2024/03/27 14:35:52;;;;;;;2.85;1.50;;;;;;;;;;5002511;28;20017;-76
2024/03/27 14:38:17;;;;;;;1.25;0.88;;;;;;;;;;4986055;28;20442;-75